This is the latest recevied weather packets stored in our database for station/object W9LRT-WX. If no packets are shown the sender has not sent any weather packets the latest 10 day(s).
| Time | Temp. | Humidity | Pressure | Rain* | Wind** | Luminosity | Snow |
|---|---|---|---|---|---|---|---|
| 1777901732 | 15° C | 72% | 1004 hPa | 0 mm | - | 478 W/m² | - |
| 1777900831 | 14.44° C | 74% | 1004 hPa | 0 mm | - | 422 W/m² | - |
| 1777899930 | 13.33° C | 75% | 1004.1 hPa | 0 mm | - | 313 W/m² | - |
| 1777899029 | 13.33° C | 75% | 1004.2 hPa | 0 mm | - | 257 W/m² | - |
| 1777898130 | 12.78° C | 76% | 1004.1 hPa | 0 mm | - | 232 W/m² | - |
| 1777897231 | 12.22° C | 76% | 1004.1 hPa | 0 mm | - | 183 W/m² | - |
| 1777896329 | 11.67° C | 78% | 1004.1 hPa | 0 mm | - | 163 W/m² | - |
| 1777895430 | 11.67° C | 78% | 1004.2 hPa | 0 mm | - | 142 W/m² | - |
| 1777894529 | 11.11° C | 79% | 1004.3 hPa | 0 mm | - | 91 W/m² | - |
| 1777893630 | 10.56° C | 79% | 1004.3 hPa | 0 mm | - | 51 W/m² | - |
| 1777892729 | 10.56° C | 79% | 1004.3 hPa | 0 mm | - | 25 W/m² | - |
| 1777891830 | 10.56° C | 79% | 1004.3 hPa | 0 mm | - | 9 W/m² | - |
| 1777890930 | 10.56° C | 79% | 1004.2 hPa | 0 mm | - | 0 W/m² | - |
| 1777890030 | 10.56° C | 79% | 1004.2 hPa | 0 mm | - | 0 W/m² | - |
| 1777889129 | 10.56° C | 79% | 1004.1 hPa | 0 mm | - | 0 W/m² | - |
| 1777888231 | 10.56° C | 78% | 1004.3 hPa | 0 mm | - | 0 W/m² | - |
| 1777887330 | 10.56° C | 78% | 1004.4 hPa | 0 mm | - | 0 W/m² | - |
| 1777886431 | 10.56° C | 79% | 1004.4 hPa | 0 mm | - | 0 W/m² | - |
| 1777885531 | 10.56° C | 78% | 1004.2 hPa | 0 mm | - | 0 W/m² | - |
| 1777884631 | 10.56° C | 78% | 1004.2 hPa | 0 mm | - | 0 W/m² | - |
| 1777883731 | 10.56° C | 78% | 1004.3 hPa | 0 mm | - | 0 W/m² | - |
| 1777882831 | 10.56° C | 78% | 1004.4 hPa | 0 mm | - | 0 W/m² | - |
| 1777881932 | 10.56° C | 77% | 1004.4 hPa | 0 mm | - | 0 W/m² | - |
| 1777881028 | 10.56° C | 77% | 1004.5 hPa | 0 mm | - | 0 W/m² | - |
| 1777880130 | 11.11° C | 77% | 1004.9 hPa | 0 mm | - | 0 W/m² | - |
* Rain latest hour (hover to see other rain measurements)
** Current wind speed in m/s (hover to see current wind gust speed)